createdAt,value
2019-03-05T06:14:19.695Z,46.70
2019-03-05T06:17:16.674Z,48.30
2019-03-05T06:19:48.726Z,48.60
2019-03-05T06:22:52.612Z,48.80
2019-03-05T06:25:29.841Z,48.50
2019-03-05T06:31:02.852Z,47.90
2019-03-05T06:33:57.962Z,47.50
2019-03-05T06:36:29.422Z,47.20
2019-03-05T06:39:08.062Z,47.10
2019-03-05T06:41:46.700Z,46.90
2019-03-05T06:44:19.723Z,46.80
2019-03-05T06:46:55.485Z,46.70
2019-03-05T06:49:28.861Z,46.70
2019-03-05T06:52:01.360Z,46.60
2019-03-05T06:54:40.520Z,46.50
2019-03-05T06:57:12.620Z,46.30
2019-03-05T06:59:43.313Z,46.30
2019-03-05T07:02:15.183Z,46.10
2019-03-05T07:04:48.927Z,46.00
2019-03-05T07:07:19.531Z,45.90
2019-03-05T07:10:12.583Z,45.80
2019-03-05T07:13:04.508Z,45.70
2019-03-05T07:16:56.485Z,45.60
2019-03-05T07:19:44.883Z,45.50
2019-03-05T07:22:55.904Z,45.50
2019-03-05T07:25:24.921Z,45.40
2019-03-05T07:27:57.691Z,45.50
2019-03-05T07:30:54.162Z,45.40
2019-03-05T07:33:24.920Z,45.30
2019-03-05T07:35:57.687Z,45.20
2019-03-05T07:38:26.520Z,45.20
2019-03-05T07:41:04.861Z,45.20
2019-03-05T07:43:48.974Z,45.20
2019-03-05T07:46:33.638Z,45.10
2019-03-05T07:49:02.980Z,45.10
2019-03-05T07:51:31.871Z,45.20
2019-03-05T07:54:13.778Z,45.20
2019-03-05T07:57:02.477Z,45.00
2019-03-05T08:00:18.086Z,44.90
2019-03-05T08:02:04.732Z,44.90
2019-03-05T08:04:33.747Z,44.80
2019-03-05T08:07:06.442Z,44.80
2019-03-05T08:09:36.960Z,44.80
2019-03-05T08:12:44.389Z,44.80
2019-03-05T08:15:48.757Z,44.70
2019-03-05T08:18:17.910Z,44.70
2019-03-05T08:21:06.053Z,44.60
2019-03-05T08:23:35.311Z,44.60
2019-03-05T08:26:18.872Z,44.70
2019-03-05T08:32:00.557Z,44.60
2019-03-05T08:34:29.737Z,44.40
2019-03-05T08:36:59.473Z,44.50
2019-03-05T08:39:28.548Z,44.60
2019-03-05T08:42:01.820Z,44.50
2019-03-05T08:44:32.936Z,44.50
2019-03-05T08:47:19.777Z,44.60
2019-03-05T08:49:56.547Z,44.80
2019-03-05T08:52:30.382Z,44.80
2019-03-05T08:54:59.420Z,44.90
2019-03-05T08:57:33.380Z,44.90
2019-03-05T09:00:05.503Z,45.00
2019-03-05T09:02:35.651Z,45.20
2019-03-05T09:05:09.504Z,45.20
2019-03-05T09:07:39.043Z,45.20
2019-03-05T09:10:18.248Z,45.20
2019-03-05T09:12:52.009Z,45.30
2019-03-05T09:15:29.783Z,45.20
2019-03-05T09:17:58.715Z,45.20
2019-03-05T09:20:27.667Z,45.00
2019-03-05T09:22:56.902Z,45.00
2019-03-05T09:25:26.733Z,45.10
2019-03-05T09:28:04.490Z,45.00
2019-03-05T09:30:34.194Z,45.00
2019-03-05T09:33:04.736Z,45.20
2019-03-05T09:35:33.690Z,44.90
2019-03-05T09:38:02.940Z,45.00
2019-03-05T09:40:33.531Z,44.80
2019-03-05T09:43:04.833Z,44.60
2019-03-05T09:45:34.876Z,44.40
2019-03-05T09:48:05.534Z,44.10
2019-03-05T09:50:38.229Z,43.90
2019-03-05T09:53:21.444Z,43.90
2019-03-05T09:56:07.312Z,43.80
2019-03-05T09:58:37.512Z,43.80
2019-03-05T10:01:06.869Z,44.00
2019-03-05T10:03:41.322Z,44.10
2019-03-05T10:06:10.300Z,44.40
2019-03-05T10:08:40.674Z,44.60
2019-03-05T10:11:10.001Z,44.60
2019-03-05T10:13:45.732Z,44.70
2019-03-05T10:16:18.327Z,44.80
2019-03-05T10:18:47.460Z,44.60
2019-03-05T10:21:20.001Z,44.60
2019-03-05T10:23:51.661Z,44.40
2019-03-05T10:26:25.501Z,44.50
2019-03-05T10:28:55.452Z,44.50
2019-03-05T10:31:27.918Z,44.40
2019-03-05T10:33:57.611Z,44.30
2019-03-05T10:36:31.955Z,44.20
2019-03-05T10:39:01.074Z,44.00
2019-03-05T10:41:32.040Z,43.90
2019-03-05T10:44:01.873Z,43.80
2019-03-05T10:46:48.170Z,43.80
2019-03-05T10:49:17.089Z,43.80
2019-03-05T10:51:46.896Z,43.80
2019-03-05T10:54:15.783Z,43.90
2019-03-05T10:56:44.734Z,44.00
2019-03-05T10:59:14.282Z,44.10
2019-03-05T11:01:43.628Z,44.10
2019-03-05T11:04:12.895Z,44.20
2019-03-05T11:06:45.159Z,44.20
2019-03-05T11:09:19.782Z,44.20
2019-03-05T11:11:49.172Z,44.20
2019-03-05T11:14:18.355Z,44.20
2019-03-05T11:16:49.809Z,44.20
2019-03-05T11:19:18.525Z,44.30
2019-03-05T11:21:52.870Z,44.30
2019-03-05T11:24:22.740Z,44.20
2019-03-05T11:26:51.818Z,44.30
2019-03-05T11:29:23.442Z,44.20
2019-03-05T11:31:52.646Z,44.30
2019-03-05T11:34:46.577Z,44.30
2019-03-05T11:37:15.553Z,44.30
2019-03-05T11:39:45.051Z,44.20
2019-03-05T11:42:14.963Z,44.20
2019-03-05T11:44:55.887Z,44.00
2019-03-05T11:47:16.603Z,43.90
2019-03-05T11:49:47.211Z,43.80
2019-03-05T11:52:26.091Z,43.50
2019-03-05T11:55:01.037Z,43.40
2019-03-05T11:57:32.082Z,43.20
2019-03-05T12:00:14.620Z,43.30
2019-03-05T12:02:44.057Z,43.40
2019-03-05T12:05:15.223Z,43.60
2019-03-05T12:07:46.807Z,44.20
2019-03-05T12:10:23.352Z,45.10
2019-03-05T12:12:57.875Z,46.70
2019-03-05T12:15:31.479Z,48.30
2019-03-05T12:18:06.173Z,49.00
2019-03-05T12:20:39.227Z,50.10
2019-03-05T12:23:10.558Z,50.40
2019-03-05T12:25:41.624Z,49.80
2019-03-05T12:28:11.387Z,49.50
2019-03-05T12:30:41.942Z,49.10
2019-03-05T12:33:24.766Z,48.80
2019-03-05T12:35:45.154Z,48.50
2019-03-05T12:38:17.834Z,48.30
2019-03-05T12:40:55.717Z,48.10
2019-03-05T12:43:25.383Z,48.50
2019-03-05T12:45:55.335Z,48.60
2019-03-05T12:48:36.329Z,48.50
2019-03-05T12:50:59.969Z,48.40
2019-03-05T12:53:34.784Z,48.20
2019-03-05T12:56:07.171Z,47.90
2019-03-05T12:58:39.057Z,47.60
2019-03-05T13:01:10.123Z,47.40
2019-03-05T13:03:50.439Z,47.20
2019-03-05T13:06:21.607Z,46.90
2019-03-05T13:08:50.902Z,46.70
2019-03-05T13:11:22.638Z,46.50
2019-03-05T13:14:05.364Z,46.40
2019-03-05T13:16:23.783Z,46.30
2019-03-05T13:18:54.184Z,46.30
2019-03-05T13:21:23.728Z,46.30
2019-03-05T13:23:52.977Z,46.20
2019-03-05T13:26:22.051Z,46.10
2019-03-05T13:28:57.921Z,46.00
2019-03-05T13:31:28.302Z,45.80
2019-03-05T13:34:00.345Z,45.80
2019-03-05T13:36:32.622Z,45.80
2019-03-05T13:39:05.480Z,46.30
2019-03-05T13:41:34.506Z,45.50
2019-03-05T13:44:05.069Z,45.40
2019-03-05T13:46:34.361Z,45.20
2019-03-05T13:49:40.627Z,45.20
2019-03-05T13:52:36.113Z,45.10
2019-03-05T13:55:26.854Z,45.10
2019-03-05T13:58:34.501Z,45.00
2019-03-05T14:01:09.572Z,45.10
2019-03-05T14:03:53.289Z,45.30
2019-03-05T14:07:05.352Z,45.30
2019-03-05T14:09:29.863Z,45.30
2019-03-05T14:11:59.633Z,45.30
2019-03-05T14:14:30.991Z,45.60
2019-03-05T14:17:17.774Z,45.70
2019-03-05T14:19:48.407Z,45.50
2019-03-05T14:22:18.995Z,45.30
2019-03-05T14:25:02.265Z,45.40
2019-03-05T14:27:28.310Z,45.50
2019-03-05T14:30:02.468Z,45.60
2019-03-05T14:32:32.664Z,45.50
2019-03-05T14:35:11.942Z,45.30
2019-03-05T14:37:41.568Z,45.40
2019-03-05T14:40:24.310Z,45.40
2019-03-05T14:42:46.634Z,45.30
2019-03-05T14:45:21.082Z,45.30
2019-03-05T14:47:50.935Z,45.50
2019-03-05T14:50:27.766Z,45.50
2019-03-05T14:53:05.997Z,45.20
2019-03-05T14:55:41.380Z,45.00
2019-03-05T14:58:12.898Z,44.60
2019-03-05T15:00:43.049Z,44.50
2019-03-05T15:03:17.481Z,44.70
2019-03-05T15:05:47.195Z,44.70
2019-03-05T15:08:19.712Z,44.70
2019-03-05T15:10:51.934Z,44.60
2019-03-05T15:13:34.382Z,44.40
2019-03-05T15:16:04.073Z,44.40
2019-03-05T15:18:52.319Z,44.40
2019-03-05T15:21:22.736Z,44.40
2019-03-05T15:23:54.676Z,44.30
2019-03-05T15:26:44.181Z,44.30
2019-03-05T15:29:17.179Z,44.30
2019-03-05T15:31:48.634Z,44.30
2019-03-05T15:34:21.303Z,44.30
2019-03-05T15:36:52.076Z,44.50
2019-03-05T15:39:21.698Z,44.60
2019-03-05T15:41:52.062Z,44.70
2019-03-05T15:44:25.343Z,44.70
2019-03-05T15:47:05.008Z,44.80
2019-03-05T15:49:27.157Z,44.80
2019-03-05T15:51:57.337Z,44.90
2019-03-05T15:54:27.365Z,45.20
2019-03-05T15:56:57.293Z,45.40
2019-03-05T15:59:42.826Z,45.50
2019-03-05T16:02:16.805Z,45.30
2019-03-05T16:04:49.048Z,45.10
2019-03-05T16:07:18.425Z,45.20
2019-03-05T16:09:50.776Z,45.10
2019-03-05T16:12:18.839Z,44.90
2019-03-05T16:14:47.867Z,44.80
2019-03-05T16:17:18.647Z,45.00
2019-03-05T16:19:52.810Z,45.10
2019-03-05T16:22:20.459Z,44.70
2019-03-05T16:24:49.394Z,44.60
2019-03-05T16:27:18.469Z,44.60
2019-03-05T16:29:52.028Z,44.90
2019-03-05T16:32:28.184Z,45.00
2019-03-05T16:35:18.447Z,44.90
2019-03-05T16:38:15.009Z,44.70
2019-03-05T16:41:06.839Z,44.60
2019-03-05T16:44:03.743Z,44.60
2019-03-05T16:46:53.359Z,44.40
2019-03-05T16:49:44.440Z,44.50
2019-03-05T16:52:31.366Z,44.30
2019-03-05T16:55:23.937Z,44.30
2019-03-05T16:58:12.473Z,44.40
2019-03-05T17:01:12.778Z,44.50
2019-03-05T17:04:21.295Z,44.50
2019-03-05T17:07:10.906Z,45.00
2019-03-05T17:10:01.211Z,45.20
2019-03-05T17:12:51.188Z,45.20
2019-03-05T17:15:44.854Z,45.00
2019-03-05T17:17:57.385Z,44.90
2019-03-05T17:20:34.807Z,45.20
2019-03-05T17:23:08.301Z,45.80
2019-03-05T17:25:47.726Z,45.10
2019-03-05T17:28:31.830Z,45.20
2019-03-05T17:31:05.102Z,45.30
2019-03-05T17:33:39.158Z,45.20
2019-03-05T17:36:12.672Z,45.20
2019-03-05T17:38:46.098Z,45.20
2019-03-05T17:41:19.714Z,45.10
2019-03-05T17:43:51.297Z,44.70
2019-03-05T17:46:25.869Z,44.60
2019-03-05T17:49:02.041Z,44.60
2019-03-05T17:51:33.338Z,44.50
2019-03-05T17:54:07.503Z,44.40
2019-03-05T17:56:44.061Z,44.30
2019-03-05T17:59:25.234Z,44.20
2019-03-05T18:01:56.040Z,44.30
2019-03-05T18:04:38.622Z,44.30
2019-03-05T18:07:25.297Z,44.40
2019-03-05T18:10:08.055Z,44.30
2019-03-05T18:12:39.786Z,44.20
2019-03-05T18:15:13.087Z,44.20
2019-03-05T18:17:54.782Z,44.20
2019-03-05T18:20:24.442Z,44.20
2019-03-05T18:22:56.154Z,44.10
2019-03-05T18:25:29.109Z,44.20
2019-03-05T18:28:05.181Z,44.10
2019-03-05T18:30:35.664Z,44.10
2019-03-05T18:33:15.584Z,44.10
2019-03-05T18:36:01.983Z,44.00
2019-03-05T18:38:39.928Z,43.90
2019-03-05T18:41:09.769Z,43.80
2019-03-05T18:44:05.991Z,43.50
2019-03-05T18:46:42.930Z,43.60
2019-03-05T18:49:18.478Z,43.50
2019-03-05T18:52:21.517Z,43.50
2019-03-05T18:55:29.502Z,43.50
2019-03-05T18:58:23.313Z,43.40
2019-03-05T19:00:55.464Z,43.30
2019-03-05T19:03:34.434Z,43.10
2019-03-05T19:09:32.872Z,42.80
2019-03-05T19:15:22.286Z,42.50
2019-03-05T19:18:00.340Z,42.50
2019-03-05T19:20:36.842Z,42.50
2019-03-05T19:23:08.379Z,42.50
2019-03-05T19:25:37.970Z,42.40
2019-03-05T19:28:18.279Z,42.40
2019-03-05T19:30:53.213Z,42.50
2019-03-05T19:33:28.987Z,42.70
2019-03-05T19:36:03.759Z,42.90
2019-03-05T19:38:47.313Z,43.30
2019-03-05T19:41:17.860Z,43.40
2019-03-05T19:43:57.195Z,43.70
2019-03-05T19:46:28.313Z,43.80
2019-03-05T19:49:27.582Z,44.00
2019-03-05T19:51:56.523Z,44.30
2019-03-05T19:54:26.939Z,44.50
2019-03-05T19:59:57.173Z,44.60
2019-03-05T20:02:39.942Z,44.50
2019-03-05T20:05:15.269Z,44.40
2019-03-05T20:07:52.560Z,44.50
2019-03-05T20:10:25.049Z,44.40
2019-03-05T20:13:21.384Z,44.50
2019-03-05T20:16:10.366Z,44.50
2019-03-05T20:19:01.675Z,44.60
2019-03-05T20:21:35.355Z,45.00
2019-03-05T20:24:09.954Z,44.60
2019-03-05T20:26:47.908Z,44.60
2019-03-05T20:29:22.423Z,45.00
2019-03-05T20:32:04.729Z,45.00
2019-03-05T20:34:31.086Z,45.00
2019-03-05T20:37:02.678Z,45.00
2019-03-05T20:39:48.780Z,45.20
2019-03-05T20:42:24.338Z,45.20
2019-03-05T20:44:57.491Z,45.30
2019-03-05T20:47:27.004Z,45.50
2019-03-05T20:49:57.408Z,45.60
2019-03-05T20:52:33.004Z,45.70
2019-03-05T20:54:59.939Z,45.60
2019-03-05T20:57:30.637Z,45.70
2019-03-05T21:00:01.249Z,45.70
2019-03-05T21:02:31.772Z,45.70
2019-03-05T21:05:02.707Z,46.10
2019-03-05T21:07:40.313Z,45.50
2019-03-05T21:10:10.531Z,45.50
2019-03-05T21:12:40.944Z,45.30
2019-03-05T21:15:13.256Z,45.20
2019-03-05T21:17:43.812Z,45.20
2019-03-05T21:20:15.130Z,45.10
2019-03-05T21:22:44.383Z,45.00
2019-03-05T21:25:21.103Z,45.00
2019-03-05T21:27:50.683Z,45.10
2019-03-05T21:30:21.011Z,45.00
2019-03-05T21:32:54.238Z,45.10
2019-03-05T21:35:23.874Z,45.10
2019-03-05T21:37:57.746Z,45.30
2019-03-05T21:40:28.896Z,45.30
2019-03-05T21:43:00.539Z,45.50
2019-03-05T21:45:34.997Z,45.60
2019-03-05T21:48:07.994Z,45.60
2019-03-05T21:50:38.462Z,45.70
2019-03-05T21:53:13.689Z,45.70
2019-03-05T21:55:45.926Z,45.80
2019-03-05T21:58:19.970Z,45.80
2019-03-05T22:00:51.583Z,46.10
2019-03-05T22:03:22.715Z,46.60
2019-03-05T22:05:53.202Z,47.30
2019-03-05T22:08:29.547Z,47.60
2019-03-05T22:11:12.174Z,47.30
2019-03-05T22:13:43.522Z,47.30
2019-03-05T22:16:14.516Z,47.30
2019-03-05T22:18:48.228Z,47.40
2019-03-05T22:21:23.958Z,47.50
2019-03-05T22:23:56.752Z,47.60
2019-03-05T22:26:35.372Z,47.70
2019-03-05T22:29:08.924Z,47.50
2019-03-05T22:31:42.878Z,47.50
2019-03-05T22:34:13.708Z,47.60
2019-03-05T22:36:44.479Z,47.60
2019-03-05T22:39:14.872Z,47.60
2019-03-05T22:42:07.373Z,47.60
2019-03-05T22:44:37.955Z,47.60
2019-03-05T22:47:08.516Z,47.60
2019-03-05T22:49:39.081Z,47.60
2019-03-05T22:52:09.780Z,47.50
2019-03-05T22:54:47.499Z,47.50
2019-03-05T22:57:20.221Z,47.50
2019-03-05T22:59:49.955Z,47.50
2019-03-05T23:02:22.818Z,47.70
2019-03-05T23:04:55.407Z,47.50
2019-03-05T23:07:28.016Z,47.50
2019-03-05T23:09:57.269Z,47.50
2019-03-05T23:12:26.139Z,47.50
2019-03-05T23:14:55.940Z,47.50
2019-03-05T23:17:28.386Z,47.40
2019-03-05T23:19:57.449Z,47.40
2019-03-05T23:22:45.546Z,47.40
2019-03-05T23:25:23.426Z,47.30
2019-03-05T23:27:52.587Z,47.30
2019-03-05T23:30:26.165Z,47.30
2019-03-05T23:32:55.356Z,47.30
2019-03-05T23:35:24.368Z,47.30
2019-03-05T23:37:56.202Z,47.20
2019-03-05T23:40:27.066Z,47.30
2019-03-05T23:43:14.765Z,47.30
2019-03-05T23:45:58.578Z,47.30
2019-03-05T23:48:32.344Z,47.20
2019-03-05T23:51:04.140Z,47.10
2019-03-05T23:56:48.505Z,47.10
2019-03-05T23:59:33.057Z,47.10
